Amsterdam Airport Schiphol

EHAM | AMS

Amsterdam , North-Holland , Netherlands

Sunday, June 7th, 2020 | 06:50

Weather

EHAM 070425Z 24011KT 9999 FEW008 FEW020CB 10/08 Q1000 NOSIG

Charts

2 Available

Gates

289 Available

Runways

6 Available

Active ATC

Events -Coming Soon-

1 Events Coming Up Soon

Next event:
EHAM Flyout